createdAt,value
2019-03-21T00:00:23.354Z,84.67
2019-03-21T00:00:49.736Z,85.05
2019-03-21T00:01:15.816Z,84.96
2019-03-21T00:01:41.927Z,85.44
2019-03-21T00:02:08.056Z,85.44
2019-03-21T00:02:34.167Z,85.63
2019-03-21T00:03:00.274Z,85.44
2019-03-21T00:03:26.375Z,85.44
2019-03-21T00:03:52.520Z,84.86
2019-03-21T00:04:18.620Z,84.86
2019-03-21T00:04:44.732Z,84.86
2019-03-21T00:05:10.848Z,84.96
2019-03-21T00:05:36.991Z,85.05
2019-03-21T00:06:03.131Z,84.48
2019-03-21T00:06:29.242Z,84.58
2019-03-21T00:06:55.344Z,84.48
2019-03-21T00:07:21.474Z,84.48
2019-03-21T00:07:47.579Z,85.05
2019-03-21T00:08:13.833Z,84.86
2019-03-21T00:08:39.942Z,84.67
2019-03-21T00:09:06.075Z,84.96
2019-03-21T00:09:32.240Z,84.96
2019-03-21T00:09:58.345Z,84.67
2019-03-21T00:10:24.461Z,84.77
2019-03-21T00:10:50.565Z,84.48
2019-03-21T00:11:16.673Z,84.86
2019-03-21T00:11:42.793Z,84.67
2019-03-21T00:12:08.897Z,84.77
2019-03-21T00:12:35.061Z,85.34
2019-03-21T00:13:01.305Z,85.34
2019-03-21T00:13:27.414Z,85.82
2019-03-21T00:13:53.538Z,85.63
2019-03-21T00:14:21.638Z,85.53
2019-03-21T00:14:47.746Z,86.2
2019-03-21T00:15:13.869Z,85.97
2019-03-21T00:15:39.990Z,85.77
2019-03-21T00:16:06.122Z,85.91
2019-03-21T00:16:33.234Z,86.01
2019-03-21T00:16:59.523Z,85.87
2019-03-21T00:17:25.894Z,86.39
2019-03-21T00:17:52.005Z,86.01
2019-03-21T00:18:18.539Z,85.91
2019-03-21T00:18:44.621Z,86.2
2019-03-21T00:19:10.789Z,85.63
2019-03-21T00:19:37.033Z,85.97
2019-03-21T00:20:03.183Z,85.97
2019-03-21T00:20:29.316Z,86.06
2019-03-21T00:20:55.504Z,86.06
2019-03-21T00:21:21.670Z,86.35
2019-03-21T00:21:47.783Z,87.02
2019-03-21T00:22:13.928Z,86.82
2019-03-21T00:22:40.049Z,86.92
2019-03-21T00:23:06.159Z,86.87
2019-03-21T00:23:32.265Z,86.92
2019-03-21T00:23:58.357Z,87.02
2019-03-21T00:24:24.468Z,87.11
2019-03-21T00:24:50.573Z,86.87
2019-03-21T00:25:16.675Z,86.3
2019-03-21T00:25:43.998Z,86.63
2019-03-21T00:26:11.563Z,86.58
2019-03-21T00:26:38.066Z,86.63
2019-03-21T00:27:04.222Z,86.68
2019-03-21T00:27:30.671Z,86.2
2019-03-21T00:27:56.796Z,86.1
2019-03-21T00:28:22.904Z,85.72
2019-03-21T00:28:49.286Z,86.01
2019-03-21T00:29:15.438Z,86.1
2019-03-21T00:29:42.798Z,85.91
2019-03-21T00:30:09.643Z,86.35
2019-03-21T00:30:35.800Z,86.92
2019-03-21T00:31:02.636Z,87.02
2019-03-21T00:31:29.519Z,86.92
2019-03-21T00:31:55.904Z,86.68
2019-03-21T00:32:22.729Z,86.44
2019-03-21T00:32:48.867Z,86.54
2019-03-21T00:33:16.139Z,86.2
2019-03-21T00:33:42.960Z,86.39
2019-03-21T00:34:09.173Z,85.91
2019-03-21T00:34:36.231Z,85.72
2019-03-21T00:35:04.175Z,85.63
2019-03-21T00:35:31.604Z,86.01
2019-03-21T00:35:59.724Z,86.1
2019-03-21T00:36:27.753Z,85.91
2019-03-21T00:36:55.482Z,86.54
2019-03-21T00:37:23.261Z,86.39
2019-03-21T00:37:51.069Z,86.63
2019-03-21T00:38:18.937Z,86.63
2019-03-21T00:38:47.001Z,86.54
2019-03-21T00:39:14.445Z,86.63
2019-03-21T00:39:42.559Z,86.82
2019-03-21T00:40:09.984Z,86.82
2019-03-21T00:40:37.781Z,87.02
2019-03-21T00:41:05.699Z,87.21
2019-03-21T00:41:33.628Z,87.21
2019-03-21T00:42:01.479Z,87.49
2019-03-21T00:42:29.495Z,87.59
2019-03-21T00:42:57.168Z,87.59
2019-03-21T00:43:25.103Z,87.4
2019-03-21T00:43:52.956Z,87.78
2019-03-21T00:44:20.776Z,86.96
2019-03-21T00:44:48.326Z,86.68
2019-03-21T00:45:16.010Z,86.44
2019-03-21T00:45:43.685Z,86.35
2019-03-21T00:46:11.315Z,85.97
2019-03-21T00:46:39.301Z,86.63
2019-03-21T00:47:07.312Z,86.63
2019-03-21T00:47:35.040Z,87.02
2019-03-21T00:48:02.719Z,86.96
2019-03-21T00:48:30.303Z,86.82
2019-03-21T00:48:57.466Z,86.3
2019-03-21T00:49:24.640Z,86.68
2019-03-21T00:49:51.656Z,86.73
2019-03-21T00:50:19.457Z,87.15
2019-03-21T00:50:47.358Z,87.02
2019-03-21T00:51:15.094Z,87.49
2019-03-21T00:51:42.748Z,87.68
2019-03-21T00:52:10.285Z,87.63
2019-03-21T00:52:38.154Z,87.11
2019-03-21T00:53:05.975Z,87.02
2019-03-21T00:53:33.877Z,87.06
2019-03-21T00:54:01.474Z,87.11
2019-03-21T00:54:29.337Z,87.02
2019-03-21T00:54:56.132Z,86.96
2019-03-21T00:55:22.352Z,86.87
2019-03-21T00:55:49.312Z,86.58
2019-03-21T00:56:15.634Z,86.39
2019-03-21T00:56:42.201Z,86.35
2019-03-21T00:57:08.795Z,86.92
2019-03-21T00:57:36.465Z,86.58
2019-03-21T00:58:04.545Z,86.63
2019-03-21T00:58:32.528Z,86.35
2019-03-21T00:58:59.995Z,86.3
2019-03-21T00:59:26.549Z,86.68
2019-03-21T00:59:52.663Z,86.3
2019-03-21T01:00:20.126Z,86.01
2019-03-21T01:00:47.242Z,85.72
2019-03-21T01:01:14.737Z,86.01
2019-03-21T01:01:42.182Z,86.87
2019-03-21T01:02:09.807Z,86.1
2019-03-21T01:02:37.822Z,85.91
2019-03-21T01:03:04.665Z,85.82
2019-03-21T01:03:31.564Z,85.82
2019-03-21T01:03:59.508Z,85.82
2019-03-21T01:04:26.948Z,85.72
2019-03-21T01:04:53.796Z,85.82
2019-03-21T01:05:20.802Z,85.91
2019-03-21T01:05:48.420Z,86.01
2019-03-21T01:06:16.563Z,86.01
2019-03-21T01:06:43.948Z,86.01
2019-03-21T01:07:11.927Z,86.2
2019-03-21T01:07:39.954Z,86.2
2019-03-21T01:08:07.412Z,85.82
2019-03-21T01:08:35.113Z,85.15
2019-03-21T01:09:02.064Z,85.15
2019-03-21T01:09:29.766Z,85.82
2019-03-21T01:09:57.375Z,85.15
2019-03-21T01:10:24.579Z,85.34
2019-03-21T01:10:51.419Z,85.15
2019-03-21T01:11:19.331Z,85.82
2019-03-21T01:11:46.789Z,86.01
2019-03-21T01:12:14.557Z,86.49
2019-03-21T01:12:42.531Z,86.35
2019-03-21T01:13:10.714Z,86.44
2019-03-21T01:13:38.389Z,87.21
2019-03-21T01:14:06.101Z,87.49
2019-03-21T01:14:33.928Z,87.78
2019-03-21T01:15:01.698Z,88.26
2019-03-21T01:15:29.463Z,87.59
2019-03-21T01:15:57.356Z,88.26
2019-03-21T01:16:25.057Z,87.87
2019-03-21T01:16:52.831Z,88.16
2019-03-21T01:17:20.576Z,87.97
2019-03-21T01:17:48.487Z,87.87
2019-03-21T01:18:16.555Z,88.16
2019-03-21T01:18:44.406Z,87.87
2019-03-21T01:19:12.429Z,87.78
2019-03-21T01:19:40.313Z,87.3
2019-03-21T01:20:08.061Z,87.3
2019-03-21T01:20:35.964Z,87.49
2019-03-21T01:21:03.842Z,87.21
2019-03-21T01:21:31.822Z,87.21
2019-03-21T01:21:59.747Z,87.21
2019-03-21T01:22:27.511Z,87.68
2019-03-21T01:22:55.448Z,87.78
2019-03-21T01:23:23.195Z,87.11
2019-03-21T01:23:50.911Z,87.78
2019-03-21T01:24:18.736Z,87.78
2019-03-21T01:24:46.472Z,87.59
2019-03-21T01:25:14.623Z,87.68
2019-03-21T01:25:42.456Z,87.3
2019-03-21T01:26:10.248Z,87.97
2019-03-21T01:26:38.460Z,87.59
2019-03-21T01:27:06.545Z,87.59
2019-03-21T01:27:34.452Z,87.49
2019-03-21T01:28:02.261Z,87.3
2019-03-21T01:28:30.156Z,87.4
2019-03-21T01:28:58.038Z,87.68
2019-03-21T01:29:25.907Z,88.16
2019-03-21T01:29:53.862Z,88.35
2019-03-21T01:30:21.757Z,88.45
2019-03-21T01:30:49.577Z,88.12
2019-03-21T01:31:17.422Z,88.69
2019-03-21T01:31:45.288Z,88.73
2019-03-21T01:32:13.042Z,88.73
2019-03-21T01:32:40.912Z,88.64
2019-03-21T01:33:08.848Z,88.54
2019-03-21T01:33:36.653Z,88.07
2019-03-21T01:34:04.577Z,88.07
2019-03-21T01:34:32.273Z,88.07
2019-03-21T01:35:00.023Z,87.87
2019-03-21T01:35:27.941Z,87.87
2019-03-21T01:35:55.666Z,88.16
2019-03-21T01:36:23.531Z,88.07
2019-03-21T01:36:51.399Z,87.59
2019-03-21T01:37:19.336Z,88.16
2019-03-21T01:37:47.335Z,88.45
2019-03-21T01:38:15.102Z,88.16
2019-03-21T01:38:42.814Z,87.78
2019-03-21T01:39:10.719Z,87.78
2019-03-21T01:39:38.680Z,87.3
2019-03-21T01:40:06.560Z,87.4
2019-03-21T01:40:34.621Z,87.4
2019-03-21T01:41:02.425Z,86.82
2019-03-21T01:41:30.521Z,87.21
2019-03-21T01:41:58.246Z,87.02
2019-03-21T01:42:25.988Z,87.68
2019-03-21T01:42:53.774Z,87.21
2019-03-21T01:43:21.682Z,87.78
2019-03-21T01:43:48.711Z,87.49
2019-03-21T01:44:15.142Z,87.4
2019-03-21T01:44:42.494Z,87.49
2019-03-21T01:45:09.601Z,87.59
2019-03-21T01:45:36.683Z,87.59
2019-03-21T01:46:03.461Z,87.11
2019-03-21T01:46:29.507Z,86.92
2019-03-21T01:46:56.085Z,87.02
2019-03-21T01:47:22.849Z,86.63
2019-03-21T01:47:49.234Z,86.92
2019-03-21T01:48:16.104Z,86.92
2019-03-21T01:48:42.657Z,87.02
2019-03-21T01:49:10.363Z,87.49
2019-03-21T01:49:37.465Z,87.21
2019-03-21T01:50:04.167Z,87.3
2019-03-21T01:50:30.274Z,87.87
2019-03-21T01:50:56.735Z,87.78
2019-03-21T01:51:22.839Z,87.21
2019-03-21T01:51:49.284Z,87.21
2019-03-21T01:52:15.871Z,87.59
2019-03-21T01:52:44.135Z,88.16
2019-03-21T01:53:12.275Z,88.16
2019-03-21T01:53:40.600Z,87.4
2019-03-21T01:54:08.499Z,87.68
2019-03-21T01:54:36.352Z,87.59
2019-03-21T01:55:02.994Z,88.16
2019-03-21T01:55:29.707Z,88.16
2019-03-21T01:55:56.157Z,87.78
2019-03-21T01:56:22.584Z,87.97
2019-03-21T01:56:48.700Z,88.35
2019-03-21T01:57:15.097Z,87.78
2019-03-21T01:57:41.883Z,87.3
2019-03-21T01:58:07.992Z,87.59
2019-03-21T01:58:35.279Z,87.49
2019-03-21T01:59:01.643Z,87.21
2019-03-21T01:59:28.701Z,87.3
2019-03-21T01:59:56.142Z,87.4
2019-03-21T02:00:22.599Z,87.4
2019-03-21T02:00:49.284Z,87.3
2019-03-21T02:01:16.120Z,87.59
2019-03-21T02:01:42.340Z,87.68
2019-03-21T02:02:08.760Z,87.78
2019-03-21T02:02:35.696Z,88.07
2019-03-21T02:03:01.854Z,87.97
2019-03-21T02:03:28.750Z,88.26
2019-03-21T02:03:55.846Z,87.68
2019-03-21T02:04:23.038Z,87.78
2019-03-21T02:04:50.479Z,87.78
2019-03-21T02:05:16.806Z,87.3
2019-03-21T02:05:43.923Z,87.4
2019-03-21T02:06:11.244Z,87.59
2019-03-21T02:06:38.444Z,87.78
2019-03-21T02:07:05.517Z,87.4
2019-03-21T02:07:32.857Z,87.49
2019-03-21T02:08:00.836Z,87.3
2019-03-21T02:08:27.495Z,87.3
2019-03-21T02:08:55.225Z,88.02
2019-03-21T02:09:22.930Z,88.31
2019-03-21T02:09:50.627Z,88.59
2019-03-21T02:10:18.415Z,88.78
2019-03-21T02:10:44.868Z,88.5
2019-03-21T02:11:11.980Z,88.92
2019-03-21T02:11:39.876Z,88.35
2019-03-21T02:12:07.226Z,88.35
2019-03-21T02:12:34.899Z,88.16
2019-03-21T02:13:01.768Z,88.26
2019-03-21T02:13:28.886Z,87.78
2019-03-21T02:13:56.448Z,87.78
2019-03-21T02:14:24.151Z,87.4
2019-03-21T02:14:52.621Z,87.49
2019-03-21T02:15:19.811Z,87.4
2019-03-21T02:15:46.956Z,87.68
2019-03-21T02:16:13.687Z,88.16
2019-03-21T02:16:40.579Z,87.59
2019-03-21T02:17:07.800Z,88.07
2019-03-21T02:17:34.834Z,88.07
2019-03-21T02:18:02.595Z,87.59
2019-03-21T02:18:30.659Z,87.3
2019-03-21T02:18:57.659Z,87.59
2019-03-21T02:19:25.102Z,87.3
2019-03-21T02:19:52.287Z,86.82
2019-03-21T02:20:19.393Z,86.92
2019-03-21T02:20:46.420Z,86.73
2019-03-21T02:21:13.437Z,86.73
2019-03-21T02:21:40.704Z,85.97
2019-03-21T02:22:07.208Z,86.63
2019-03-21T02:22:34.853Z,86.92
2019-03-21T02:23:02.340Z,87.4
2019-03-21T02:23:29.608Z,87.4
2019-03-21T02:23:56.292Z,87.49
2019-03-21T02:24:23.392Z,87.78
2019-03-21T02:24:51.116Z,88.12
2019-03-21T02:25:18.490Z,88.35
2019-03-21T02:25:46.142Z,87.59
2019-03-21T02:26:13.297Z,87.68
2019-03-21T02:26:41.423Z,87.97
2019-03-21T02:27:09.284Z,87.4
2019-03-21T02:27:37.053Z,87.3
2019-03-21T02:28:04.793Z,87.59
2019-03-21T02:28:32.943Z,87.78
2019-03-21T02:29:00.675Z,87.11
2019-03-21T02:29:28.718Z,86.82
2019-03-21T02:29:56.379Z,87.02
2019-03-21T02:30:24.308Z,87.11
2019-03-21T02:30:52.500Z,86.54
2019-03-21T02:31:20.495Z,86.25
2019-03-21T02:31:47.781Z,86.44
2019-03-21T02:32:15.718Z,86.63
2019-03-21T02:32:42.364Z,86.63
2019-03-21T02:33:08.789Z,86.16
2019-03-21T02:33:35.476Z,86.63
2019-03-21T02:34:01.843Z,85.97
2019-03-21T02:34:27.987Z,86.44
2019-03-21T02:34:54.686Z,85.87
2019-03-21T02:35:21.322Z,85.77
2019-03-21T02:35:47.438Z,85.97
2019-03-21T02:36:13.574Z,86.06
2019-03-21T02:36:39.885Z,85.77
2019-03-21T02:37:06.776Z,86.73
2019-03-21T02:37:34.157Z,85.68
2019-03-21T02:38:01.010Z,86.06
2019-03-21T02:38:27.891Z,86.63
2019-03-21T02:38:54.015Z,86.44
2019-03-21T02:39:20.519Z,86.25
2019-03-21T02:39:58.460Z,86.92
2019-03-21T02:40:15.837Z,87.02
2019-03-21T02:40:42.488Z,87.11
2019-03-21T02:41:09.246Z,86.82
2019-03-21T02:41:36.717Z,87.59
2019-03-21T02:42:03.533Z,87.59
2019-03-21T02:42:29.984Z,87.78
2019-03-21T02:42:56.093Z,87.78
2019-03-21T02:43:23.019Z,86.82
2019-03-21T02:43:49.952Z,86.73
2019-03-21T02:44:16.038Z,87.02
2019-03-21T02:44:42.278Z,87.11
2019-03-21T02:45:09.800Z,87.11
2019-03-21T02:45:35.960Z,87.21
2019-03-21T02:46:02.057Z,86.73
2019-03-21T02:46:28.187Z,87.02
2019-03-21T02:46:54.327Z,86.92
2019-03-21T02:47:20.476Z,86.92
2019-03-21T02:47:46.635Z,86.25
2019-03-21T02:48:12.770Z,86.35
2019-03-21T02:48:38.944Z,86.63
2019-03-21T02:49:05.110Z,86.06
2019-03-21T02:49:31.298Z,86.35
2019-03-21T02:49:57.429Z,86.35
2019-03-21T02:50:23.560Z,86.73
2019-03-21T02:50:49.700Z,86.63
2019-03-21T02:51:15.857Z,86.54
2019-03-21T02:51:41.992Z,86.35
2019-03-21T02:52:08.123Z,86.06
2019-03-21T02:52:34.242Z,86.44
2019-03-21T02:53:00.377Z,86.35
2019-03-21T02:53:26.538Z,86.63
2019-03-21T02:53:52.675Z,86.63
2019-03-21T02:54:18.783Z,86.25
2019-03-21T02:54:44.924Z,86.92
2019-03-21T02:55:11.071Z,87.02
2019-03-21T02:55:37.240Z,86.63
2019-03-21T02:56:03.350Z,87.02
2019-03-21T02:56:29.449Z,86.63
2019-03-21T02:56:55.582Z,86.82
2019-03-21T02:57:21.687Z,87.02
2019-03-21T02:57:47.823Z,86.63
2019-03-21T02:58:13.934Z,86.25
2019-03-21T02:58:40.100Z,86.35
2019-03-21T02:59:06.237Z,86.54
2019-03-21T02:59:32.422Z,86.35
2019-03-21T02:59:58.563Z,85.87
2019-03-21T03:00:24.681Z,86.54
2019-03-21T03:00:50.807Z,86.44
2019-03-21T03:01:16.920Z,86.54
2019-03-21T03:01:43.028Z,86.92
2019-03-21T03:02:09.142Z,87.11
2019-03-21T03:02:37.256Z,87.3
2019-03-21T03:03:02.452Z,86.73
2019-03-21T03:03:28.544Z,87.21
2019-03-21T03:03:54.651Z,86.82
2019-03-21T03:04:20.794Z,87.21
2019-03-21T03:04:46.932Z,87.78
2019-03-21T03:05:13.064Z,87.35
2019-03-21T03:05:39.178Z,87.54
2019-03-21T03:06:05.276Z,88.07
2019-03-21T03:06:31.412Z,88.16
2019-03-21T03:06:57.587Z,87.3
2019-03-21T03:07:23.725Z,87.68
2019-03-21T03:07:49.886Z,87.3
2019-03-21T03:08:15.990Z,87.49
2019-03-21T03:08:42.112Z,87.59
2019-03-21T03:09:08.251Z,86.73
2019-03-21T03:09:34.415Z,87.21
2019-03-21T03:10:00.587Z,87.02
2019-03-21T03:10:26.682Z,87.02
2019-03-21T03:10:52.819Z,86.82
2019-03-21T03:11:19.917Z,86.63
2019-03-21T03:11:46.127Z,86.82
2019-03-21T03:12:12.247Z,86.63
2019-03-21T03:12:38.394Z,86.73
2019-03-21T03:13:04.498Z,86.63
2019-03-21T03:13:30.631Z,86.44
2019-03-21T03:13:56.770Z,87.02
2019-03-21T03:14:23.876Z,85.77
2019-03-21T03:14:49.987Z,86.63
2019-03-21T03:15:22.885Z,85.87
2019-03-21T03:15:44.594Z,86.35
2019-03-21T03:16:10.764Z,86.73
2019-03-21T03:16:36.901Z,87.11
2019-03-21T03:17:03.013Z,87.21
2019-03-21T03:17:29.162Z,87.3
2019-03-21T03:17:55.328Z,86.73
2019-03-21T03:18:21.490Z,86.82
2019-03-21T03:18:47.664Z,86.82
2019-03-21T03:19:13.795Z,86.82
2019-03-21T03:19:39.986Z,86.44
2019-03-21T03:20:06.140Z,86.16
2019-03-21T03:20:32.252Z,86.06
2019-03-21T03:20:58.361Z,85.77
2019-03-21T03:21:24.492Z,86.44
2019-03-21T03:21:50.629Z,85.77
2019-03-21T03:22:16.799Z,86.06
2019-03-21T03:22:42.940Z,86.63
2019-03-21T03:23:09.055Z,86.92
2019-03-21T03:23:35.230Z,87.78
2019-03-21T03:24:01.385Z,87.4
2019-03-21T03:24:27.490Z,87.59
2019-03-21T03:24:53.657Z,87.11
2019-03-21T03:25:19.852Z,87.02
2019-03-21T03:25:46.016Z,86.92
2019-03-21T03:26:12.180Z,87.11
2019-03-21T03:26:38.319Z,87.59
2019-03-21T03:27:04.454Z,87.68
2019-03-21T03:27:30.558Z,87.59
2019-03-21T03:27:56.695Z,87.02
2019-03-21T03:28:22.833Z,87.02
2019-03-21T03:28:48.942Z,86.92
2019-03-21T03:29:15.076Z,86.35
2019-03-21T03:29:41.187Z,86.44
2019-03-21T03:30:07.326Z,86.73
2019-03-21T03:30:33.526Z,86.35
2019-03-21T03:30:59.652Z,86.63
2019-03-21T03:31:25.912Z,86.54
2019-03-21T03:31:52.021Z,86.25
2019-03-21T03:32:18.126Z,86.44
2019-03-21T03:32:44.294Z,86.16
2019-03-21T03:33:10.459Z,86.54
2019-03-21T03:33:36.603Z,87.11
2019-03-21T03:34:02.769Z,86.73
2019-03-21T03:34:28.926Z,86.06
2019-03-21T03:34:55.035Z,86.73
2019-03-21T03:35:21.866Z,86.82
2019-03-21T03:35:48.026Z,86.92
2019-03-21T03:36:14.165Z,86.82
2019-03-21T03:36:40.320Z,86.82
2019-03-21T03:37:06.458Z,86.54
2019-03-21T03:37:32.590Z,86.73
2019-03-21T03:37:58.713Z,87.21
2019-03-21T03:38:24.840Z,87.02
2019-03-21T03:38:50.948Z,87.11
2019-03-21T03:39:17.125Z,87.21
2019-03-21T03:39:43.258Z,87.4
2019-03-21T03:40:09.395Z,86.73
2019-03-21T03:40:35.503Z,87.11
2019-03-21T03:41:01.665Z,87.11
2019-03-21T03:41:27.775Z,86.92
2019-03-21T03:41:53.913Z,87.21
2019-03-21T03:42:20.052Z,86.92
2019-03-21T03:42:46.218Z,86.82
2019-03-21T03:43:12.386Z,86.63
2019-03-21T03:43:38.536Z,87.02
2019-03-21T03:44:04.658Z,87.02
2019-03-21T03:44:30.833Z,87.02
2019-03-21T03:44:56.938Z,87.11
2019-03-21T03:45:36.533Z,87.45
2019-03-21T03:45:52.219Z,87.3
2019-03-21T03:46:18.404Z,87.35
2019-03-21T03:46:44.535Z,87.64
2019-03-21T03:47:10.704Z,87.16
2019-03-21T03:47:36.819Z,87.4
2019-03-21T03:48:02.925Z,87.4
2019-03-21T03:48:29.061Z,87.45
2019-03-21T03:48:55.203Z,87.3
2019-03-21T03:49:21.341Z,87.49
2019-03-21T03:49:47.472Z,87.4
2019-03-21T03:50:13.643Z,87.49
2019-03-21T03:50:39.748Z,87.11
2019-03-21T03:51:05.886Z,86.92
2019-03-21T03:51:32.062Z,86.92
2019-03-21T03:51:58.152Z,86.63
2019-03-21T03:52:24.262Z,86.73
2019-03-21T03:52:50.370Z,87.11
2019-03-21T03:53:16.482Z,87.78
2019-03-21T03:53:42.864Z,87.4
2019-03-21T03:54:09.037Z,87.49
2019-03-21T03:54:35.150Z,86.82
2019-03-21T03:55:01.251Z,86.92
2019-03-21T03:55:27.438Z,87.11
2019-03-21T03:55:53.536Z,86.63
2019-03-21T03:56:19.671Z,86.82
2019-03-21T03:56:45.770Z,87.11
2019-03-21T03:57:11.918Z,87.16
2019-03-21T03:57:38.028Z,87.45
2019-03-21T03:58:04.176Z,87.21
2019-03-21T03:58:30.306Z,87.35
2019-03-21T03:58:56.411Z,87.3
2019-03-21T03:59:22.515Z,86.82
2019-03-21T03:59:48.709Z,86.73
2019-03-21T04:00:14.846Z,87.02
2019-03-21T04:00:40.984Z,87.02
2019-03-21T04:01:07.124Z,87.11
2019-03-21T04:01:33.259Z,86.82
2019-03-21T04:01:59.435Z,86.92
2019-03-21T04:02:25.576Z,86.82
2019-03-21T04:02:51.681Z,87.11
2019-03-21T04:03:17.814Z,87.21
2019-03-21T04:03:43.928Z,87.78
2019-03-21T04:04:10.098Z,87.78
2019-03-21T04:04:36.258Z,87.3
2019-03-21T04:05:02.430Z,87.35
2019-03-21T04:05:28.536Z,87.68
2019-03-21T04:05:54.678Z,87.78
2019-03-21T04:06:20.874Z,87.78
2019-03-21T04:06:46.987Z,87.45
2019-03-21T04:07:13.094Z,87.4
2019-03-21T04:07:39.227Z,87.4
2019-03-21T04:08:05.394Z,87.59
2019-03-21T04:08:31.535Z,86.92
2019-03-21T04:08:57.672Z,86.92
2019-03-21T04:09:23.814Z,87.35
2019-03-21T04:09:49.954Z,88.12
2019-03-21T04:10:16.210Z,88.12
2019-03-21T04:10:42.347Z,88.31
2019-03-21T04:11:08.546Z,88.21
2019-03-21T04:11:34.690Z,88.5
2019-03-21T04:12:00.797Z,87.93
2019-03-21T04:12:26.900Z,88.12
2019-03-21T04:12:53.009Z,87.54
2019-03-21T04:13:19.143Z,87.93
2019-03-21T04:13:45.288Z,88.31
2019-03-21T04:14:11.394Z,88.4
2019-03-21T04:14:37.721Z,88.59
2019-03-21T04:15:03.794Z,88.98
2019-03-21T04:15:29.915Z,88.69
2019-03-21T04:15:57.112Z,88.12
2019-03-21T04:16:23.258Z,88.59
2019-03-21T04:16:49.388Z,88.4
2019-03-21T04:17:15.522Z,88.31
2019-03-21T04:17:41.635Z,88.5
2019-03-21T04:18:07.742Z,87.93
2019-03-21T04:18:33.847Z,88.12
2019-03-21T04:18:59.988Z,87.54
2019-03-21T04:19:26.125Z,87.74
2019-03-21T04:19:52.255Z,88.12
2019-03-21T04:20:18.389Z,88.12
2019-03-21T04:20:44.500Z,88.5
2019-03-21T04:21:10.611Z,88.88
2019-03-21T04:21:36.718Z,88.98
2019-03-21T04:22:02.942Z,88.98
2019-03-21T04:22:29.047Z,88.78
2019-03-21T04:22:55.183Z,88.98
2019-03-21T04:23:21.290Z,88.69
2019-03-21T04:23:47.427Z,88.21
2019-03-21T04:24:14.591Z,88.59
2019-03-21T04:24:40.754Z,88.98
2019-03-21T04:25:06.886Z,89.17
2019-03-21T04:25:33.102Z,89.26
2019-03-21T04:25:59.278Z,88.78
2019-03-21T04:26:25.407Z,88.98
2019-03-21T04:26:51.482Z,88.59
2019-03-21T04:27:17.619Z,88.88
2019-03-21T04:27:43.726Z,88.31
2019-03-21T04:28:09.878Z,88.31
2019-03-21T04:28:35.981Z,88.21
2019-03-21T04:29:02.169Z,88.4
2019-03-21T04:29:28.291Z,88.5
2019-03-21T04:29:54.403Z,88.5
2019-03-21T04:30:20.538Z,88.5
2019-03-21T04:30:46.648Z,88.31
2019-03-21T04:31:12.778Z,88.98
2019-03-21T04:31:38.909Z,88.78
2019-03-21T04:32:05.046Z,89.36
2019-03-21T04:32:31.151Z,89.36
2019-03-21T04:32:57.317Z,89.45
2019-03-21T04:33:23.482Z,88.98
2019-03-21T04:33:49.614Z,88.4
2019-03-21T04:34:15.714Z,89.07
2019-03-21T04:34:41.846Z,89.07
2019-03-21T04:35:07.979Z,89.36
2019-03-21T04:35:34.097Z,89.26
2019-03-21T04:36:00.204Z,89.36
2019-03-21T04:36:26.367Z,89.26
2019-03-21T04:36:52.478Z,88.88
2019-03-21T04:37:18.591Z,89.07
2019-03-21T04:37:44.732Z,88.98
2019-03-21T04:38:10.844Z,88.88
2019-03-21T04:38:36.985Z,88.78
2019-03-21T04:39:03.104Z,88.78
2019-03-21T04:39:29.268Z,88.12
2019-03-21T04:39:55.407Z,88.31
2019-03-21T04:40:21.534Z,88.12
2019-03-21T04:40:47.676Z,88.88
2019-03-21T04:41:13.849Z,88.31
2019-03-21T04:41:40.014Z,88.5
2019-03-21T04:42:06.124Z,88.59
2019-03-21T04:42:32.226Z,87.83
2019-03-21T04:42:58.339Z,87.83
2019-03-21T04:43:24.448Z,88.12
2019-03-21T04:43:50.584Z,87.64
2019-03-21T04:44:16.697Z,87.83
2019-03-21T04:44:44.440Z,88.12
2019-03-21T04:45:08.963Z,88.5
2019-03-21T04:45:35.075Z,88.31
2019-03-21T04:46:03.513Z,88.12
2019-03-21T04:46:28.342Z,88.12
2019-03-21T04:46:54.516Z,88.5
2019-03-21T04:47:20.647Z,88.5
2019-03-21T04:47:46.786Z,88.4
2019-03-21T04:48:12.913Z,88.12
2019-03-21T04:48:39.035Z,88.12
2019-03-21T04:49:05.139Z,87.78
2019-03-21T04:49:31.243Z,87.54
2019-03-21T04:49:57.356Z,87.3
2019-03-21T04:50:23.460Z,87.4
2019-03-21T04:50:49.575Z,87.45
2019-03-21T04:51:15.680Z,87.45
2019-03-21T04:51:41.797Z,87.54
2019-03-21T04:52:07.898Z,88.02
2019-03-21T04:52:34.017Z,88.02
2019-03-21T04:53:00.149Z,87.93
2019-03-21T04:53:26.286Z,87.83
2019-03-21T04:53:53.557Z,88.59
2019-03-21T04:54:19.491Z,88.88
2019-03-21T04:54:45.631Z,87.93
2019-03-21T04:55:11.730Z,88.21
2019-03-21T04:55:37.843Z,88.31
2019-03-21T04:56:03.955Z,88.21
2019-03-21T04:56:30.087Z,88.21
2019-03-21T04:56:56.219Z,88.31
2019-03-21T04:57:22.329Z,88.5
2019-03-21T04:57:48.433Z,88.02
2019-03-21T04:58:14.576Z,88.5
2019-03-21T04:58:40.687Z,88.88
2019-03-21T04:59:06.785Z,88.98
2019-03-21T04:59:32.919Z,89.36
2019-03-21T04:59:59.056Z,89.26
2019-03-21T05:00:25.169Z,89.36
2019-03-21T05:00:51.302Z,88.69
2019-03-21T05:01:17.504Z,88.78
2019-03-21T05:01:43.642Z,88.98
2019-03-21T05:02:09.770Z,88.31
2019-03-21T05:02:35.878Z,88.4
2019-03-21T05:03:02.010Z,87.93
2019-03-21T05:03:28.121Z,88.69
2019-03-21T05:03:54.261Z,88.02
2019-03-21T05:04:20.366Z,87.64
2019-03-21T05:04:46.485Z,87.74
2019-03-21T05:05:12.609Z,87.83
2019-03-21T05:05:38.719Z,88.12
2019-03-21T05:06:04.860Z,87.74
2019-03-21T05:06:32.858Z,87.93
2019-03-21T05:06:58.198Z,87.54
2019-03-21T05:07:24.307Z,87.54
2019-03-21T05:07:50.450Z,87.83
2019-03-21T05:08:16.549Z,87.74
2019-03-21T05:08:42.663Z,87.74
2019-03-21T05:09:08.767Z,87.45
2019-03-21T05:09:34.880Z,87.35
2019-03-21T05:10:01.020Z,87.45
2019-03-21T05:10:27.151Z,87.35
2019-03-21T05:10:53.266Z,87.64
2019-03-21T05:11:19.371Z,87.74
2019-03-21T05:11:45.476Z,87.64
2019-03-21T05:12:11.588Z,87.79
2019-03-21T05:12:37.694Z,88.02
2019-03-21T05:13:03.800Z,88.31
2019-03-21T05:13:29.943Z,87.93
2019-03-21T05:13:56.047Z,88.5
2019-03-21T05:14:22.150Z,88.5
2019-03-21T05:14:48.274Z,88.31
2019-03-21T05:15:14.370Z,87.93
2019-03-21T05:15:40.473Z,87.93
2019-03-21T05:16:14.522Z,88.31
2019-03-21T05:16:34.675Z,88.55
2019-03-21T05:17:00.786Z,88.17
2019-03-21T05:17:26.895Z,88.45
2019-03-21T05:17:53.004Z,88.36
2019-03-21T05:18:19.137Z,88.26
2019-03-21T05:18:45.330Z,88.5
2019-03-21T05:19:11.440Z,88.4
2019-03-21T05:19:37.575Z,88.5
2019-03-21T05:20:03.685Z,88.5
2019-03-21T05:20:30.170Z,88.69
2019-03-21T05:20:56.286Z,88.12
2019-03-21T05:21:22.394Z,88.21
2019-03-21T05:21:48.529Z,88.12
2019-03-21T05:22:14.641Z,88.31
2019-03-21T05:22:40.782Z,88.21
2019-03-21T05:23:06.922Z,87.74
2019-03-21T05:23:33.030Z,87.83
2019-03-21T05:23:59.148Z,87.16
2019-03-21T05:24:25.253Z,87.54
2019-03-21T05:24:51.362Z,88.21
2019-03-21T05:25:17.472Z,87.45
2019-03-21T05:25:43.572Z,88.31
2019-03-21T05:26:09.682Z,88.12
2019-03-21T05:26:35.795Z,88.12
2019-03-21T05:27:01.943Z,87.83
2019-03-21T05:27:28.017Z,88.36
2019-03-21T05:27:54.120Z,88.74
2019-03-21T05:28:20.235Z,88.26
2019-03-21T05:28:46.339Z,88.07
2019-03-21T05:29:12.447Z,88.12
2019-03-21T05:29:38.560Z,88.74
2019-03-21T05:30:04.667Z,88.55
2019-03-21T05:30:30.770Z,88.84
2019-03-21T05:30:56.884Z,89.12
2019-03-21T05:31:22.990Z,88.93
2019-03-21T05:31:49.125Z,89.31
2019-03-21T05:32:15.226Z,89.31
2019-03-21T05:32:41.341Z,89.4
2019-03-21T05:33:07.442Z,89.4
2019-03-21T05:33:33.548Z,89.03
2019-03-21T05:33:59.685Z,89.12
2019-03-21T05:34:25.831Z,88.84
2019-03-21T05:34:51.968Z,88.93
2019-03-21T05:35:18.077Z,88.93
2019-03-21T05:35:44.180Z,88.74
2019-03-21T05:36:10.294Z,88.07
2019-03-21T05:36:36.431Z,88.36
2019-03-21T05:37:02.543Z,88.45
2019-03-21T05:37:28.649Z,88.45
2019-03-21T05:37:54.771Z,88.45
2019-03-21T05:38:20.876Z,88.45
2019-03-21T05:38:46.984Z,88.07
2019-03-21T05:39:13.089Z,88.74
2019-03-21T05:39:39.233Z,88.64
2019-03-21T05:40:05.512Z,88.55
2019-03-21T05:40:31.659Z,88.64
2019-03-21T05:40:57.766Z,89.03
2019-03-21T05:41:23.879Z,88.64
2019-03-21T05:41:49.995Z,89.03
2019-03-21T05:42:16.109Z,88.93
2019-03-21T05:42:42.212Z,89.31
2019-03-21T05:43:08.319Z,89.5
2019-03-21T05:43:34.452Z,89.89
2019-03-21T05:44:00.556Z,89.5
2019-03-21T05:44:26.664Z,89.4